createdAt,value
2022-12-01T00:01:36.002Z,100.00
2022-12-01T00:04:04.165Z,100.00
2022-12-01T00:06:32.432Z,100.00
2022-12-01T00:09:20.023Z,100.00
2022-12-01T00:11:48.515Z,100.00
2022-12-01T00:14:17.697Z,100.00
2022-12-01T00:31:27.666Z,100.00
2022-12-01T00:33:55.859Z,100.00
2022-12-01T00:51:25.978Z,100.00
2022-12-01T01:24:47.814Z,100.00
2022-12-01T01:27:17.465Z,100.00
2022-12-01T01:29:45.506Z,100.00
2022-12-01T01:32:13.891Z,100.00
2022-12-01T01:34:41.892Z,100.00
2022-12-01T01:37:09.962Z,100.00
2022-12-01T01:39:37.830Z,100.00
2022-12-01T01:42:05.862Z,100.00
2022-12-01T01:44:52.560Z,100.00
2022-12-01T01:47:23.031Z,100.00
2022-12-01T01:49:51.206Z,100.00
2022-12-01T02:21:05.303Z,100.00
2022-12-01T02:28:21.063Z,100.00
2022-12-01T02:37:17.536Z,100.00
2022-12-01T02:44:01.948Z,100.00
2022-12-01T03:14:43.686Z,100.00
2022-12-01T03:36:38.804Z,100.00
2022-12-01T04:05:47.213Z,100.00
2022-12-01T04:11:33.699Z,100.00
2022-12-01T04:23:06.325Z,100.00
2022-12-01T04:42:53.018Z,100.00
2022-12-01T04:52:36.249Z,100.00
2022-12-01T04:58:40.001Z,100.00
2022-12-01T05:01:56.028Z,100.00
2022-12-01T05:16:42.441Z,100.00
2022-12-01T05:19:51.155Z,100.00
2022-12-01T05:34:40.300Z,100.00
2022-12-01T05:49:37.832Z,100.00
2022-12-01T05:52:07.319Z,100.00
2022-12-01T05:54:40.111Z,100.00
2022-12-01T05:57:11.132Z,100.00
2022-12-01T05:59:39.320Z,100.00
2022-12-01T06:02:10.778Z,100.00
2022-12-01T06:04:39.659Z,100.00
2022-12-01T06:07:07.942Z,100.00
2022-12-01T06:09:48.007Z,100.00
2022-12-01T06:12:16.565Z,100.00
2022-12-01T06:14:45.200Z,100.00
2022-12-01T06:17:15.147Z,100.00
2022-12-01T06:19:48.562Z,100.00
2022-12-01T06:22:20.106Z,100.00
2022-12-01T06:24:51.836Z,100.00
2022-12-01T06:27:21.123Z,100.00
2022-12-01T06:29:51.432Z,100.00
2022-12-01T06:32:23.033Z,100.00
2022-12-01T06:35:01.883Z,100.00
2022-12-01T06:37:37.386Z,100.00
2022-12-01T06:40:11.075Z,100.00
2022-12-01T06:42:39.967Z,100.00
2022-12-01T06:45:09.178Z,100.00
2022-12-01T06:47:38.019Z,100.00
2022-12-01T06:52:59.415Z,100.00
2022-12-01T06:56:10.505Z,100.00
2022-12-01T06:58:39.307Z,100.00
2022-12-01T07:01:10.142Z,100.00
2022-12-01T07:03:42.956Z,100.00
2022-12-01T07:06:13.077Z,100.00
2022-12-01T07:08:55.556Z,100.00
2022-12-01T07:11:25.343Z,100.00
2022-12-01T07:16:43.352Z,100.00
2022-12-01T07:19:15.083Z,100.00
2022-12-01T07:24:28.768Z,100.00
2022-12-01T07:27:06.533Z,100.00
2022-12-01T07:29:41.929Z,100.00
2022-12-01T07:32:17.361Z,100.00
2022-12-01T07:34:49.442Z,100.00
2022-12-01T07:37:18.830Z,100.00
2022-12-01T07:39:55.005Z,100.00
2022-12-01T07:42:51.240Z,100.00
2022-12-01T07:45:54.796Z,100.00
2022-12-01T07:48:33.226Z,100.00
2022-12-01T07:51:05.605Z,100.00
2022-12-01T07:56:28.256Z,100.00
2022-12-01T07:59:06.807Z,100.00
2022-12-01T08:01:39.164Z,100.00
2022-12-01T08:04:18.663Z,100.00
2022-12-01T08:06:50.834Z,100.00
2022-12-01T08:09:18.738Z,100.00
2022-12-01T08:11:47.445Z,100.00
2022-12-01T08:17:29.499Z,100.00
2022-12-01T08:22:50.503Z,100.00
2022-12-01T08:25:19.828Z,100.00
2022-12-01T08:27:49.763Z,100.00
2022-12-01T08:33:19.612Z,100.00
2022-12-01T08:35:55.774Z,100.00
2022-12-01T08:38:24.105Z,100.00
2022-12-01T08:41:10.272Z,100.00
2022-12-01T08:43:57.877Z,100.00
2022-12-01T08:46:40.285Z,100.00
2022-12-01T08:49:11.588Z,100.00
2022-12-01T08:51:40.738Z,100.00
2022-12-01T08:59:46.277Z,100.00
2022-12-01T09:02:25.559Z,100.00
2022-12-01T09:04:54.757Z,100.00
2022-12-01T09:07:26.881Z,100.00
2022-12-01T09:09:55.467Z,100.00
2022-12-01T09:12:27.056Z,100.00
2022-12-01T09:17:46.272Z,100.00
2022-12-01T09:20:35.570Z,100.00
2022-12-01T09:26:13.786Z,100.00
2022-12-01T09:28:46.530Z,100.00
2022-12-01T09:34:16.774Z,100.00
2022-12-01T09:36:46.499Z,100.00
2022-12-01T09:39:18.875Z,100.00
2022-12-01T09:44:39.112Z,98.65
2022-12-01T09:47:19.237Z,94.28
2022-12-01T09:49:56.125Z,91.63
2022-12-01T09:52:27.760Z,89.42
2022-12-01T09:54:59.502Z,90.82
2022-12-01T09:57:40.584Z,87.54
2022-12-01T10:00:26.730Z,89.38
2022-12-01T10:03:22.566Z,87.04
2022-12-01T10:14:54.156Z,86.56
2022-12-01T10:20:22.975Z,85.89
2022-12-01T10:23:19.089Z,87.04
2022-12-01T10:25:54.571Z,83.32
2022-12-01T10:28:32.356Z,87.55
2022-12-01T10:31:13.532Z,89.83
2022-12-01T10:33:52.059Z,84.70
2022-12-01T10:36:20.329Z,85.74
2022-12-01T10:38:55.954Z,86.03
2022-12-01T10:41:33.798Z,85.51
2022-12-01T10:44:07.717Z,89.04
2022-12-01T10:46:39.025Z,95.78
2022-12-01T10:49:16.086Z,92.55
2022-12-01T10:52:09.656Z,93.99
2022-12-01T10:54:43.741Z,91.09
2022-12-01T10:57:30.661Z,88.35
2022-12-01T11:00:36.084Z,91.56
2022-12-01T11:03:19.890Z,91.49
2022-12-01T11:05:54.379Z,94.07
2022-12-01T11:08:26.251Z,98.96
2022-12-01T11:13:40.083Z,100.00
2022-12-01T11:16:18.381Z,100.00
2022-12-01T11:21:32.015Z,100.00
2022-12-01T11:24:18.619Z,100.00
2022-12-01T11:26:49.897Z,100.00
2022-12-01T11:32:21.032Z,100.00
2022-12-01T11:34:53.315Z,97.99
2022-12-01T11:37:24.860Z,97.88
2022-12-01T11:39:55.050Z,91.56
2022-12-01T11:45:28.522Z,94.48
2022-12-01T11:48:01.316Z,97.53
2022-12-01T11:50:36.734Z,100.00
2022-12-01T11:53:12.705Z,100.00
2022-12-01T11:55:49.451Z,100.00
2022-12-01T11:58:30.466Z,100.00
2022-12-01T12:01:07.226Z,100.00
2022-12-01T12:03:47.185Z,100.00
2022-12-01T12:09:37.286Z,100.00
2022-12-01T12:12:31.492Z,100.00
2022-12-01T12:18:02.622Z,100.00
2022-12-01T12:20:52.288Z,100.00
2022-12-01T12:26:19.026Z,100.00
2022-12-01T12:28:56.418Z,100.00
2022-12-01T12:31:42.137Z,100.00
2022-12-01T12:34:25.801Z,100.00
2022-12-01T12:37:01.405Z,100.00
2022-12-01T12:39:52.351Z,100.00
2022-12-01T12:42:25.069Z,100.00
2022-12-01T12:44:57.383Z,100.00
2022-12-01T12:47:46.465Z,100.00
2022-12-01T12:50:27.469Z,100.00
2022-12-01T12:52:59.413Z,100.00
2022-12-01T12:55:31.774Z,100.00
2022-12-01T12:58:09.511Z,100.00
2022-12-01T13:00:54.042Z,100.00
2022-12-01T13:03:33.905Z,100.00
2022-12-01T13:06:12.334Z,100.00
2022-12-01T13:08:47.583Z,99.57
2022-12-01T13:11:28.582Z,98.14
2022-12-01T13:13:59.606Z,100.00
2022-12-01T13:16:32.406Z,100.00
2022-12-01T13:19:06.364Z,100.00
2022-12-01T13:21:37.648Z,99.91
2022-12-01T13:24:09.539Z,93.82
2022-12-01T13:26:41.800Z,89.33
2022-12-01T13:32:06.842Z,79.00
2022-12-01T13:34:46.381Z,94.76
2022-12-01T13:37:25.055Z,98.43
2022-12-01T13:40:16.351Z,90.42
2022-12-01T13:43:10.428Z,91.82
2022-12-01T13:45:41.224Z,86.77
2022-12-01T13:48:29.014Z,89.33
2022-12-01T13:51:01.365Z,80.06
2022-12-01T13:53:41.983Z,92.88
2022-12-01T13:56:28.576Z,96.64
2022-12-01T13:59:00.343Z,100.00
2022-12-01T14:01:47.789Z,100.00
2022-12-01T14:04:24.969Z,100.00
2022-12-01T14:07:30.483Z,100.00
2022-12-01T14:13:03.750Z,100.00
2022-12-01T14:16:00.236Z,100.00
2022-12-01T14:21:46.923Z,100.00
2022-12-01T14:24:24.292Z,100.00
2022-12-01T14:32:42.836Z,100.00
2022-12-01T14:35:15.718Z,100.00
2022-12-01T14:37:52.666Z,100.00
2022-12-01T14:43:34.992Z,100.00
2022-12-01T14:48:55.699Z,100.00
2022-12-01T14:51:38.828Z,100.00
2022-12-01T14:54:22.666Z,100.00
2022-12-01T15:03:32.691Z,100.00
2022-12-01T15:06:03.789Z,100.00
2022-12-01T15:08:53.437Z,100.00
2022-12-01T15:11:27.073Z,100.00
2022-12-01T15:13:57.456Z,100.00
2022-12-01T15:16:45.573Z,100.00
2022-12-01T15:19:34.573Z,100.00
2022-12-01T15:22:10.153Z,100.00
2022-12-01T15:24:48.379Z,100.00
2022-12-01T15:27:34.472Z,100.00
2022-12-01T15:30:05.475Z,100.00
2022-12-01T15:32:53.753Z,100.00
2022-12-01T15:35:25.985Z,100.00
2022-12-01T15:38:00.358Z,100.00
2022-12-01T15:43:31.724Z,100.00
2022-12-01T15:48:46.867Z,100.00
2022-12-01T15:51:23.627Z,100.00
2022-12-01T15:53:58.272Z,100.00
2022-12-01T15:56:55.041Z,100.00
2022-12-01T15:59:31.354Z,100.00
2022-12-01T16:02:02.102Z,100.00
2022-12-01T16:04:37.425Z,100.00
2022-12-01T16:07:09.878Z,100.00
2022-12-01T16:09:41.576Z,100.00
2022-12-01T16:12:23.543Z,100.00
2022-12-01T16:15:14.647Z,100.00
2022-12-01T16:17:46.645Z,100.00
2022-12-01T16:20:25.667Z,100.00
2022-12-01T16:22:59.988Z,100.00
2022-12-01T16:25:31.330Z,100.00
2022-12-01T16:28:02.126Z,100.00
2022-12-01T16:30:40.857Z,100.00
2022-12-01T16:33:18.220Z,100.00
2022-12-01T16:35:52.550Z,100.00
2022-12-01T16:41:23.335Z,100.00
2022-12-01T17:09:23.535Z,100.00
2022-12-01T17:50:29.368Z,100.00
2022-12-01T18:57:34.519Z,100.00
2022-12-01T19:18:36.366Z,100.00
2022-12-01T19:21:04.493Z,100.00
2022-12-01T19:23:33.146Z,100.00
2022-12-01T19:26:05.146Z,100.00
2022-12-01T19:28:33.148Z,100.00
2022-12-01T19:31:01.711Z,100.00
2022-12-01T19:33:30.951Z,100.00
2022-12-01T19:36:04.462Z,100.00
2022-12-01T19:38:32.801Z,100.00
2022-12-01T19:41:02.497Z,100.00
2022-12-01T19:43:30.221Z,100.00
2022-12-01T19:45:58.164Z,100.00
2022-12-01T19:48:26.245Z,100.00
2022-12-01T19:50:54.526Z,100.00
2022-12-01T19:53:23.718Z,100.00
2022-12-01T19:55:51.608Z,100.00
2022-12-01T19:58:19.563Z,100.00
2022-12-01T20:00:47.269Z,100.00
2022-12-01T20:03:14.995Z,100.00
2022-12-01T20:05:42.872Z,100.00
2022-12-01T20:08:13.653Z,100.00
2022-12-01T20:10:49.081Z,100.00
2022-12-01T20:13:16.762Z,100.00
2022-12-01T20:15:44.885Z,100.00
2022-12-01T20:18:14.622Z,100.00
2022-12-01T20:20:42.969Z,100.00
2022-12-01T20:23:10.796Z,100.00
2022-12-01T20:25:38.700Z,100.00
2022-12-01T20:28:07.742Z,100.00
2022-12-01T20:30:40.046Z,100.00
2022-12-01T20:33:08.016Z,100.00
2022-12-01T20:35:36.390Z,100.00
2022-12-01T20:38:04.467Z,100.00
2022-12-01T20:40:32.222Z,100.00
2022-12-01T20:43:00.073Z,100.00
2022-12-01T20:45:29.516Z,100.00
2022-12-01T20:47:57.366Z,100.00
2022-12-01T20:50:25.351Z,100.00
2022-12-01T20:52:54.017Z,100.00
2022-12-01T20:55:22.028Z,100.00
2022-12-01T20:57:49.980Z,100.00
2022-12-01T21:00:18.187Z,100.00
2022-12-01T21:02:47.924Z,100.00
2022-12-01T21:05:15.740Z,100.00
2022-12-01T21:07:43.553Z,100.00
2022-12-01T21:10:15.666Z,100.00
2022-12-01T21:13:04.779Z,100.00
2022-12-01T21:15:36.876Z,100.00
2022-12-01T21:18:10.805Z,100.00
2022-12-01T21:20:41.896Z,100.00
2022-12-01T21:23:11.496Z,100.00
2022-12-01T21:25:40.304Z,100.00
2022-12-01T21:28:14.515Z,100.00
2022-12-01T21:30:42.325Z,100.00
2022-12-01T21:33:17.803Z,100.00
2022-12-01T21:35:45.665Z,100.00
2022-12-01T21:38:20.422Z,100.00
2022-12-01T21:40:49.911Z,100.00
2022-12-01T21:43:20.024Z,100.00
2022-12-01T21:45:51.288Z,100.00
2022-12-01T21:48:23.100Z,100.00
2022-12-01T21:50:54.258Z,100.00
2022-12-01T21:53:25.330Z,100.00
2022-12-01T21:55:53.093Z,100.00
2022-12-01T21:58:25.479Z,100.00
2022-12-01T22:00:53.454Z,100.00
2022-12-01T22:03:30.333Z,100.00
2022-12-01T22:06:21.673Z,100.00
2022-12-01T22:08:49.503Z,100.00
2022-12-01T22:11:18.987Z,100.00
2022-12-01T22:13:48.394Z,100.00
2022-12-01T22:16:17.883Z,100.00
2022-12-01T22:18:48.665Z,100.00
2022-12-01T22:21:27.181Z,100.00
2022-12-01T22:24:00.324Z,100.00
2022-12-01T22:26:28.551Z,100.00
2022-12-01T22:28:57.706Z,100.00
2022-12-01T22:31:25.596Z,100.00
2022-12-01T22:34:00.173Z,100.00
2022-12-01T22:36:33.313Z,100.00
2022-12-01T22:39:01.186Z,100.00
2022-12-01T22:41:30.275Z,100.00
2022-12-01T22:43:59.642Z,100.00
2022-12-01T22:46:32.597Z,100.00
2022-12-01T22:49:03.702Z,100.00
2022-12-01T22:51:36.237Z,100.00
2022-12-01T22:54:20.988Z,100.00
2022-12-01T22:56:49.790Z,100.00
2022-12-01T22:59:19.824Z,100.00
2022-12-01T23:01:52.052Z,100.00
2022-12-01T23:04:31.310Z,100.00
2022-12-01T23:07:09.631Z,100.00
2022-12-01T23:09:39.434Z,100.00
2022-12-01T23:12:27.134Z,100.00
2022-12-01T23:14:57.839Z,100.00
2022-12-01T23:17:26.892Z,100.00
2022-12-01T23:20:01.129Z,100.00
2022-12-01T23:22:28.851Z,100.00
2022-12-01T23:24:56.409Z,100.00
2022-12-01T23:27:24.177Z,100.00
2022-12-01T23:29:52.040Z,100.00
2022-12-01T23:32:20.419Z,100.00
2022-12-01T23:34:48.209Z,100.00
2022-12-01T23:37:24.077Z,100.00
2022-12-01T23:39:52.041Z,100.00
2022-12-01T23:42:19.843Z,100.00
2022-12-01T23:44:49.616Z,100.00
2022-12-01T23:47:19.632Z,100.00
2022-12-01T23:49:48.867Z,100.00
2022-12-01T23:52:19.629Z,100.00
2022-12-01T23:54:49.398Z,100.00
2022-12-01T23:57:20.792Z,100.00
2022-12-01T23:59:49.184Z,100.00
